sensor_id;sensor_type;location;lat;lon;timestamp;P1;durP1;ratioP1;P2;durP2;ratioP2
51499;SDS011;39101;53.478;6.158;2023-07-02T00:02:23;22.38;;;8.52;;
51499;SDS011;39101;53.478;6.158;2023-07-02T00:04:48;24.35;;;8.63;;
51499;SDS011;39101;53.478;6.158;2023-07-02T00:07:14;27.92;;;8.20;;
51499;SDS011;39101;53.478;6.158;2023-07-02T00:09:40;27.75;;;8.75;;
51499;SDS011;39101;53.478;6.158;2023-07-02T00:12:06;27.88;;;9.80;;
51499;SDS011;39101;53.478;6.158;2023-07-02T00:14:32;30.35;;;8.88;;
51499;SDS011;39101;53.478;6.158;2023-07-02T00:16:58;29.73;;;8.63;;
51499;SDS011;39101;53.478;6.158;2023-07-02T00:19:24;25.55;;;8.88;;
51499;SDS011;39101;53.478;6.158;2023-07-02T00:21:50;25.98;;;8.60;;
51499;SDS011;39101;53.478;6.158;2023-07-02T00:24:15;28.23;;;8.73;;
51499;SDS011;39101;53.478;6.158;2023-07-02T00:26:41;30.33;;;9.35;;
51499;SDS011;39101;53.478;6.158;2023-07-02T00:29:07;25.80;;;9.68;;
51499;SDS011;39101;53.478;6.158;2023-07-02T00:31:34;34.25;;;10.05;;
51499;SDS011;39101;53.478;6.158;2023-07-02T00:34:00;32.50;;;9.05;;
51499;SDS011;39101;53.478;6.158;2023-07-02T00:36:27;29.35;;;9.75;;
51499;SDS011;39101;53.478;6.158;2023-07-02T00:38:54;28.17;;;8.57;;
51499;SDS011;39101;53.478;6.158;2023-07-02T00:41:20;28.98;;;9.68;;
51499;SDS011;39101;53.478;6.158;2023-07-02T00:43:45;32.50;;;8.43;;
51499;SDS011;39101;53.478;6.158;2023-07-02T00:46:13;30.10;;;9.75;;
51499;SDS011;39101;53.478;6.158;2023-07-02T00:48:45;28.83;;;8.75;;
51499;SDS011;39101;53.478;6.158;2023-07-02T00:51:16;25.73;;;8.52;;
51499;SDS011;39101;53.478;6.158;2023-07-02T00:53:47;29.85;;;8.65;;
51499;SDS011;39101;53.478;6.158;2023-07-02T00:56:13;31.92;;;8.55;;
51499;SDS011;39101;53.478;6.158;2023-07-02T00:58:40;29.33;;;10.13;;
51499;SDS011;39101;53.478;6.158;2023-07-02T01:01:13;27.77;;;9.25;;
51499;SDS011;39101;53.478;6.158;2023-07-02T01:06:24;31.60;;;8.55;;
51499;SDS011;39101;53.478;6.158;2023-07-02T01:09:03;34.45;;;9.32;;
51499;SDS011;39101;53.478;6.158;2023-07-02T01:11:34;31.70;;;9.48;;
51499;SDS011;39101;53.478;6.158;2023-07-02T01:14:31;27.95;;;9.02;;
51499;SDS011;39101;53.478;6.158;2023-07-02T01:16:54;30.70;;;9.75;;
51499;SDS011;39101;53.478;6.158;2023-07-02T01:22:16;27.73;;;9.35;;
51499;SDS011;39101;53.478;6.158;2023-07-02T01:24:43;31.92;;;9.88;;
51499;SDS011;39101;53.478;6.158;2023-07-02T01:27:09;34.58;;;10.68;;
51499;SDS011;39101;53.478;6.158;2023-07-02T01:29:35;28.35;;;9.50;;
51499;SDS011;39101;53.478;6.158;2023-07-02T01:32:02;28.70;;;9.63;;
51499;SDS011;39101;53.478;6.158;2023-07-02T01:34:28;27.77;;;8.90;;
51499;SDS011;39101;53.478;6.158;2023-07-02T01:36:54;32.05;;;9.60;;
51499;SDS011;39101;53.478;6.158;2023-07-02T01:39:19;31.42;;;9.45;;
51499;SDS011;39101;53.478;6.158;2023-07-02T01:41:50;37.33;;;9.95;;
51499;SDS011;39101;53.478;6.158;2023-07-02T01:44:17;31.73;;;8.65;;
51499;SDS011;39101;53.478;6.158;2023-07-02T01:46:44;35.33;;;10.25;;
51499;SDS011;39101;53.478;6.158;2023-07-02T01:49:22;27.98;;;9.23;;
51499;SDS011;39101;53.478;6.158;2023-07-02T01:51:51;32.97;;;10.10;;
51499;SDS011;39101;53.478;6.158;2023-07-02T01:54:18;27.42;;;9.27;;
51499;SDS011;39101;53.478;6.158;2023-07-02T01:56:48;36.20;;;11.40;;
51499;SDS011;39101;53.478;6.158;2023-07-02T01:59:13;37.75;;;11.55;;
51499;SDS011;39101;53.478;6.158;2023-07-02T02:01:40;33.45;;;8.98;;
51499;SDS011;39101;53.478;6.158;2023-07-02T02:04:09;29.02;;;9.60;;
51499;SDS011;39101;53.478;6.158;2023-07-02T02:06:36;28.42;;;8.90;;
51499;SDS011;39101;53.478;6.158;2023-07-02T02:09:03;32.25;;;9.27;;
51499;SDS011;39101;53.478;6.158;2023-07-02T02:11:29;27.88;;;10.52;;
51499;SDS011;39101;53.478;6.158;2023-07-02T02:13:56;33.60;;;9.05;;
51499;SDS011;39101;53.478;6.158;2023-07-02T02:16:22;25.58;;;8.48;;
51499;SDS011;39101;53.478;6.158;2023-07-02T02:18:48;30.67;;;9.88;;
51499;SDS011;39101;53.478;6.158;2023-07-02T02:21:18;27.48;;;8.50;;
51499;SDS011;39101;53.478;6.158;2023-07-02T02:23:45;31.08;;;10.82;;
51499;SDS011;39101;53.478;6.158;2023-07-02T02:26:11;28.75;;;10.15;;
51499;SDS011;39101;53.478;6.158;2023-07-02T02:28:36;30.05;;;9.57;;
51499;SDS011;39101;53.478;6.158;2023-07-02T02:31:02;26.48;;;8.57;;
51499;SDS011;39101;53.478;6.158;2023-07-02T02:33:29;28.35;;;9.43;;
51499;SDS011;39101;53.478;6.158;2023-07-02T02:35:55;25.92;;;8.75;;
51499;SDS011;39101;53.478;6.158;2023-07-02T02:38:21;30.27;;;9.25;;
51499;SDS011;39101;53.478;6.158;2023-07-02T02:40:46;31.50;;;10.43;;
51499;SDS011;39101;53.478;6.158;2023-07-02T02:43:12;33.40;;;10.70;;
51499;SDS011;39101;53.478;6.158;2023-07-02T02:45:38;30.75;;;9.50;;
51499;SDS011;39101;53.478;6.158;2023-07-02T02:48:04;29.58;;;9.30;;
51499;SDS011;39101;53.478;6.158;2023-07-02T02:50:30;30.42;;;9.90;;
51499;SDS011;39101;53.478;6.158;2023-07-02T02:52:56;30.63;;;9.07;;
51499;SDS011;39101;53.478;6.158;2023-07-02T02:55:21;25.65;;;8.90;;
51499;SDS011;39101;53.478;6.158;2023-07-02T02:57:47;30.85;;;9.05;;
51499;SDS011;39101;53.478;6.158;2023-07-02T03:00:13;30.70;;;8.07;;
51499;SDS011;39101;53.478;6.158;2023-07-02T03:02:39;28.27;;;9.88;;
51499;SDS011;39101;53.478;6.158;2023-07-02T03:05:05;30.65;;;8.90;;
51499;SDS011;39101;53.478;6.158;2023-07-02T03:07:31;30.10;;;8.90;;
51499;SDS011;39101;53.478;6.158;2023-07-02T03:09:58;32.17;;;9.32;;
51499;SDS011;39101;53.478;6.158;2023-07-02T03:12:25;30.55;;;9.35;;
51499;SDS011;39101;53.478;6.158;2023-07-02T03:14:50;25.23;;;9.00;;
51499;SDS011;39101;53.478;6.158;2023-07-02T03:17:19;27.23;;;8.77;;
51499;SDS011;39101;53.478;6.158;2023-07-02T03:19:46;32.20;;;10.02;;
51499;SDS011;39101;53.478;6.158;2023-07-02T03:22:11;28.17;;;8.82;;
51499;SDS011;39101;53.478;6.158;2023-07-02T03:24:37;27.85;;;8.60;;
51499;SDS011;39101;53.478;6.158;2023-07-02T03:27:03;28.50;;;10.00;;
51499;SDS011;39101;53.478;6.158;2023-07-02T03:29:29;28.05;;;9.15;;
51499;SDS011;39101;53.478;6.158;2023-07-02T03:31:55;30.08;;;9.30;;
51499;SDS011;39101;53.478;6.158;2023-07-02T03:34:20;29.75;;;9.25;;
51499;SDS011;39101;53.478;6.158;2023-07-02T03:36:48;31.45;;;9.02;;
51499;SDS011;39101;53.478;6.158;2023-07-02T03:39:14;26.98;;;8.70;;
51499;SDS011;39101;53.478;6.158;2023-07-02T03:41:40;33.22;;;8.95;;
51499;SDS011;39101;53.478;6.158;2023-07-02T03:44:05;22.45;;;8.63;;
51499;SDS011;39101;53.478;6.158;2023-07-02T03:46:31;26.45;;;8.45;;
51499;SDS011;39101;53.478;6.158;2023-07-02T03:48:57;27.98;;;9.25;;
51499;SDS011;39101;53.478;6.158;2023-07-02T03:51:23;26.50;;;8.73;;
51499;SDS011;39101;53.478;6.158;2023-07-02T03:53:48;27.83;;;9.65;;
51499;SDS011;39101;53.478;6.158;2023-07-02T03:56:14;27.60;;;8.40;;
51499;SDS011;39101;53.478;6.158;2023-07-02T03:58:40;26.42;;;8.68;;
51499;SDS011;39101;53.478;6.158;2023-07-02T04:01:06;26.00;;;7.35;;
51499;SDS011;39101;53.478;6.158;2023-07-02T04:03:32;23.50;;;8.38;;
51499;SDS011;39101;53.478;6.158;2023-07-02T04:05:57;28.20;;;7.20;;
51499;SDS011;39101;53.478;6.158;2023-07-02T04:08:23;23.45;;;7.80;;
51499;SDS011;39101;53.478;6.158;2023-07-02T04:10:53;28.88;;;8.48;;
51499;SDS011;39101;53.478;6.158;2023-07-02T04:13:19;25.52;;;7.47;;
51499;SDS011;39101;53.478;6.158;2023-07-02T04:15:45;24.33;;;8.10;;
51499;SDS011;39101;53.478;6.158;2023-07-02T04:18:11;19.27;;;7.25;;
51499;SDS011;39101;53.478;6.158;2023-07-02T04:20:36;26.20;;;7.68;;
51499;SDS011;39101;53.478;6.158;2023-07-02T04:23:08;22.63;;;6.60;;
51499;SDS011;39101;53.478;6.158;2023-07-02T04:25:33;22.67;;;7.32;;
51499;SDS011;39101;53.478;6.158;2023-07-02T04:27:59;28.25;;;7.95;;
51499;SDS011;39101;53.478;6.158;2023-07-02T04:30:25;32.05;;;8.18;;
51499;SDS011;39101;53.478;6.158;2023-07-02T04:32:51;26.02;;;8.32;;
51499;SDS011;39101;53.478;6.158;2023-07-02T04:35:17;21.50;;;7.75;;
51499;SDS011;39101;53.478;6.158;2023-07-02T04:37:43;24.55;;;7.65;;
51499;SDS011;39101;53.478;6.158;2023-07-02T04:40:09;27.35;;;7.00;;
51499;SDS011;39101;53.478;6.158;2023-07-02T04:42:36;27.00;;;7.63;;
51499;SDS011;39101;53.478;6.158;2023-07-02T04:45:05;28.75;;;7.60;;
51499;SDS011;39101;53.478;6.158;2023-07-02T04:47:31;24.90;;;7.15;;
51499;SDS011;39101;53.478;6.158;2023-07-02T04:49:58;29.13;;;8.00;;
51499;SDS011;39101;53.478;6.158;2023-07-02T04:52:24;21.95;;;7.18;;
51499;SDS011;39101;53.478;6.158;2023-07-02T04:54:50;24.80;;;6.18;;
51499;SDS011;39101;53.478;6.158;2023-07-02T04:57:15;26.50;;;6.68;;
51499;SDS011;39101;53.478;6.158;2023-07-02T04:59:41;22.05;;;7.70;;
51499;SDS011;39101;53.478;6.158;2023-07-02T05:02:08;28.75;;;7.18;;
51499;SDS011;39101;53.478;6.158;2023-07-02T05:04:33;18.92;;;5.53;;
51499;SDS011;39101;53.478;6.158;2023-07-02T05:07:00;19.60;;;5.45;;
51499;SDS011;39101;53.478;6.158;2023-07-02T05:09:26;17.00;;;5.78;;
51499;SDS011;39101;53.478;6.158;2023-07-02T05:11:51;24.55;;;7.28;;
51499;SDS011;39101;53.478;6.158;2023-07-02T05:14:17;19.48;;;7.25;;
51499;SDS011;39101;53.478;6.158;2023-07-02T05:16:43;25.55;;;6.82;;
51499;SDS011;39101;53.478;6.158;2023-07-02T05:19:11;18.48;;;5.90;;
51499;SDS011;39101;53.478;6.158;2023-07-02T05:21:37;22.60;;;5.93;;
51499;SDS011;39101;53.478;6.158;2023-07-02T05:24:02;17.40;;;5.38;;
51499;SDS011;39101;53.478;6.158;2023-07-02T05:26:28;26.88;;;7.20;;
51499;SDS011;39101;53.478;6.158;2023-07-02T05:28:54;20.75;;;5.60;;
51499;SDS011;39101;53.478;6.158;2023-07-02T05:31:20;28.63;;;5.95;;
51499;SDS011;39101;53.478;6.158;2023-07-02T05:33:45;21.10;;;6.07;;
51499;SDS011;39101;53.478;6.158;2023-07-02T05:36:11;24.55;;;6.10;;
51499;SDS011;39101;53.478;6.158;2023-07-02T05:38:37;21.95;;;6.03;;
51499;SDS011;39101;53.478;6.158;2023-07-02T05:41:03;21.75;;;7.30;;
51499;SDS011;39101;53.478;6.158;2023-07-02T05:43:28;20.23;;;8.68;;
51499;SDS011;39101;53.478;6.158;2023-07-02T05:45:54;24.52;;;7.30;;
51499;SDS011;39101;53.478;6.158;2023-07-02T05:48:22;21.23;;;6.80;;
51499;SDS011;39101;53.478;6.158;2023-07-02T05:50:48;20.15;;;6.35;;
51499;SDS011;39101;53.478;6.158;2023-07-02T05:53:14;24.25;;;6.32;;
51499;SDS011;39101;53.478;6.158;2023-07-02T05:55:41;25.10;;;7.63;;
51499;SDS011;39101;53.478;6.158;2023-07-02T05:58:08;17.05;;;5.15;;
51499;SDS011;39101;53.478;6.158;2023-07-02T06:00:34;22.50;;;6.68;;
51499;SDS011;39101;53.478;6.158;2023-07-02T06:03:00;18.27;;;5.45;;
51499;SDS011;39101;53.478;6.158;2023-07-02T06:05:25;25.00;;;6.38;;
51499;SDS011;39101;53.478;6.158;2023-07-02T06:07:51;21.73;;;5.90;;
51499;SDS011;39101;53.478;6.158;2023-07-02T06:10:17;21.65;;;7.53;;
51499;SDS011;39101;53.478;6.158;2023-07-02T06:12:43;23.85;;;6.30;;
51499;SDS011;39101;53.478;6.158;2023-07-02T06:15:09;19.73;;;5.60;;
51499;SDS011;39101;53.478;6.158;2023-07-02T06:17:35;19.55;;;6.03;;
51499;SDS011;39101;53.478;6.158;2023-07-02T06:20:02;20.40;;;6.22;;
51499;SDS011;39101;53.478;6.158;2023-07-02T06:22:30;15.20;;;5.35;;
51499;SDS011;39101;53.478;6.158;2023-07-02T06:24:55;24.35;;;6.18;;
51499;SDS011;39101;53.478;6.158;2023-07-02T06:27:21;26.45;;;6.57;;
51499;SDS011;39101;53.478;6.158;2023-07-02T06:29:47;20.73;;;6.63;;
51499;SDS011;39101;53.478;6.158;2023-07-02T06:32:13;19.15;;;5.47;;
51499;SDS011;39101;53.478;6.158;2023-07-02T06:34:39;22.67;;;5.63;;
51499;SDS011;39101;53.478;6.158;2023-07-02T06:37:04;18.83;;;5.32;;
51499;SDS011;39101;53.478;6.158;2023-07-02T06:39:30;19.88;;;4.82;;
51499;SDS011;39101;53.478;6.158;2023-07-02T06:41:56;24.77;;;5.78;;
51499;SDS011;39101;53.478;6.158;2023-07-02T06:44:22;21.40;;;4.95;;
51499;SDS011;39101;53.478;6.158;2023-07-02T06:46:47;25.00;;;6.30;;
51499;SDS011;39101;53.478;6.158;2023-07-02T06:49:13;23.58;;;5.35;;
51499;SDS011;39101;53.478;6.158;2023-07-02T06:51:39;23.38;;;4.78;;
51499;SDS011;39101;53.478;6.158;2023-07-02T06:54:04;26.95;;;5.95;;
51499;SDS011;39101;53.478;6.158;2023-07-02T06:56:30;19.95;;;4.75;;
51499;SDS011;39101;53.478;6.158;2023-07-02T06:58:57;21.13;;;5.00;;
51499;SDS011;39101;53.478;6.158;2023-07-02T07:01:23;25.60;;;7.57;;
51499;SDS011;39101;53.478;6.158;2023-07-02T07:03:48;19.42;;;5.32;;
51499;SDS011;39101;53.478;6.158;2023-07-02T07:06:14;19.52;;;5.95;;
51499;SDS011;39101;53.478;6.158;2023-07-02T07:08:40;25.70;;;6.22;;
51499;SDS011;39101;53.478;6.158;2023-07-02T07:11:06;18.92;;;4.47;;
51499;SDS011;39101;53.478;6.158;2023-07-02T07:13:31;18.38;;;3.65;;
51499;SDS011;39101;53.478;6.158;2023-07-02T07:15:57;18.20;;;4.47;;
51499;SDS011;39101;53.478;6.158;2023-07-02T07:18:23;23.55;;;5.45;;
51499;SDS011;39101;53.478;6.158;2023-07-02T07:20:49;16.55;;;4.95;;
51499;SDS011;39101;53.478;6.158;2023-07-02T07:23:17;17.90;;;4.93;;
51499;SDS011;39101;53.478;6.158;2023-07-02T07:25:43;20.25;;;5.85;;
51499;SDS011;39101;53.478;6.158;2023-07-02T07:28:09;20.25;;;5.68;;
51499;SDS011;39101;53.478;6.158;2023-07-02T07:30:41;16.33;;;4.47;;
51499;SDS011;39101;53.478;6.158;2023-07-02T07:33:07;22.40;;;5.00;;
51499;SDS011;39101;53.478;6.158;2023-07-02T07:35:35;24.60;;;5.88;;
51499;SDS011;39101;53.478;6.158;2023-07-02T07:38:00;16.80;;;4.63;;
51499;SDS011;39101;53.478;6.158;2023-07-02T07:40:26;22.60;;;4.53;;
51499;SDS011;39101;53.478;6.158;2023-07-02T07:42:52;18.63;;;4.60;;
51499;SDS011;39101;53.478;6.158;2023-07-02T07:45:17;13.63;;;3.92;;
51499;SDS011;39101;53.478;6.158;2023-07-02T07:47:43;16.95;;;4.90;;
51499;SDS011;39101;53.478;6.158;2023-07-02T07:50:09;25.77;;;5.82;;
51499;SDS011;39101;53.478;6.158;2023-07-02T07:52:38;21.08;;;4.80;;
51499;SDS011;39101;53.478;6.158;2023-07-02T07:55:05;18.58;;;4.43;;
51499;SDS011;39101;53.478;6.158;2023-07-02T07:57:31;19.00;;;4.65;;
51499;SDS011;39101;53.478;6.158;2023-07-02T07:59:57;18.25;;;4.53;;
51499;SDS011;39101;53.478;6.158;2023-07-02T08:02:22;21.25;;;5.47;;
51499;SDS011;39101;53.478;6.158;2023-07-02T08:04:48;19.13;;;5.32;;
51499;SDS011;39101;53.478;6.158;2023-07-02T08:07:14;16.35;;;5.68;;
51499;SDS011;39101;53.478;6.158;2023-07-02T08:09:40;18.27;;;5.50;;
51499;SDS011;39101;53.478;6.158;2023-07-02T08:12:06;21.48;;;5.32;;
51499;SDS011;39101;53.478;6.158;2023-07-02T08:14:33;20.60;;;5.60;;
51499;SDS011;39101;53.478;6.158;2023-07-02T08:17:00;25.52;;;5.85;;
51499;SDS011;39101;53.478;6.158;2023-07-02T08:19:26;20.05;;;5.57;;
51499;SDS011;39101;53.478;6.158;2023-07-02T08:21:51;19.92;;;4.65;;
51499;SDS011;39101;53.478;6.158;2023-07-02T08:24:17;21.30;;;4.72;;
51499;SDS011;39101;53.478;6.158;2023-07-02T08:26:43;20.70;;;5.43;;
51499;SDS011;39101;53.478;6.158;2023-07-02T08:29:10;21.42;;;4.43;;
51499;SDS011;39101;53.478;6.158;2023-07-02T08:31:36;13.50;;;4.20;;
51499;SDS011;39101;53.478;6.158;2023-07-02T08:34:01;19.23;;;4.88;;
51499;SDS011;39101;53.478;6.158;2023-07-02T08:36:27;17.02;;;4.03;;
51499;SDS011;39101;53.478;6.158;2023-07-02T08:38:53;14.82;;;4.82;;
51499;SDS011;39101;53.478;6.158;2023-07-02T08:41:20;17.60;;;4.40;;
51499;SDS011;39101;53.478;6.158;2023-07-02T08:43:46;21.65;;;4.60;;
51499;SDS011;39101;53.478;6.158;2023-07-02T08:46:14;24.23;;;4.82;;
51499;SDS011;39101;53.478;6.158;2023-07-02T08:48:41;17.85;;;5.40;;
51499;SDS011;39101;53.478;6.158;2023-07-02T08:51:07;21.23;;;4.63;;
51499;SDS011;39101;53.478;6.158;2023-07-02T08:53:33;17.55;;;4.60;;
51499;SDS011;39101;53.478;6.158;2023-07-02T08:56:02;26.25;;;6.00;;
51499;SDS011;39101;53.478;6.158;2023-07-02T08:58:28;18.63;;;4.22;;
51499;SDS011;39101;53.478;6.158;2023-07-02T09:01:10;19.35;;;4.80;;
51499;SDS011;39101;53.478;6.158;2023-07-02T09:03:37;21.95;;;5.18;;
51499;SDS011;39101;53.478;6.158;2023-07-02T09:06:04;16.70;;;4.28;;
51499;SDS011;39101;53.478;6.158;2023-07-02T09:08:31;18.45;;;5.22;;
51499;SDS011;39101;53.478;6.158;2023-07-02T09:11:13;13.50;;;4.53;;
51499;SDS011;39101;53.478;6.158;2023-07-02T09:19:03;21.55;;;5.45;;
51499;SDS011;39101;53.478;6.158;2023-07-02T09:24:32;19.27;;;5.05;;
51499;SDS011;39101;53.478;6.158;2023-07-02T09:26:59;18.90;;;4.38;;
51499;SDS011;39101;53.478;6.158;2023-07-02T09:31:53;17.33;;;4.78;;
51499;SDS011;39101;53.478;6.158;2023-07-02T09:34:29;17.85;;;4.65;;
51499;SDS011;39101;53.478;6.158;2023-07-02T09:36:57;24.05;;;4.85;;
51499;SDS011;39101;53.478;6.158;2023-07-02T09:39:30;24.30;;;4.40;;
51499;SDS011;39101;53.478;6.158;2023-07-02T09:41:57;25.17;;;5.60;;
51499;SDS011;39101;53.478;6.158;2023-07-02T09:44:28;25.52;;;4.70;;
51499;SDS011;39101;53.478;6.158;2023-07-02T09:47:01;17.13;;;4.13;;
51499;SDS011;39101;53.478;6.158;2023-07-02T09:49:31;20.13;;;4.88;;
51499;SDS011;39101;53.478;6.158;2023-07-02T09:52:02;19.98;;;5.53;;
51499;SDS011;39101;53.478;6.158;2023-07-02T09:54:31;14.48;;;3.75;;
51499;SDS011;39101;53.478;6.158;2023-07-02T09:56:58;16.48;;;4.20;;
51499;SDS011;39101;53.478;6.158;2023-07-02T09:59:24;13.38;;;4.68;;
51499;SDS011;39101;53.478;6.158;2023-07-02T10:01:50;16.58;;;4.82;;
51499;SDS011;39101;53.478;6.158;2023-07-02T10:04:17;13.38;;;3.83;;
51499;SDS011;39101;53.478;6.158;2023-07-02T10:06:47;14.32;;;3.85;;
51499;SDS011;39101;53.478;6.158;2023-07-02T10:09:16;13.13;;;4.45;;
51499;SDS011;39101;53.478;6.158;2023-07-02T10:11:45;18.83;;;4.68;;
51499;SDS011;39101;53.478;6.158;2023-07-02T10:14:11;16.90;;;3.80;;
51499;SDS011;39101;53.478;6.158;2023-07-02T10:16:53;21.52;;;4.97;;
51499;SDS011;39101;53.478;6.158;2023-07-02T10:19:20;17.15;;;4.40;;
51499;SDS011;39101;53.478;6.158;2023-07-02T10:21:47;15.52;;;4.43;;
51499;SDS011;39101;53.478;6.158;2023-07-02T10:24:25;14.93;;;4.10;;
51499;SDS011;39101;53.478;6.158;2023-07-02T10:26:51;16.40;;;4.50;;
51499;SDS011;39101;53.478;6.158;2023-07-02T10:29:24;15.57;;;4.07;;
51499;SDS011;39101;53.478;6.158;2023-07-02T10:31:51;17.45;;;4.28;;
51499;SDS011;39101;53.478;6.158;2023-07-02T10:37:13;11.98;;;4.20;;
51499;SDS011;39101;53.478;6.158;2023-07-02T10:39:38;14.65;;;4.20;;
51499;SDS011;39101;53.478;6.158;2023-07-02T10:42:09;15.10;;;4.38;;
51499;SDS011;39101;53.478;6.158;2023-07-02T10:44:46;23.27;;;4.97;;
51499;SDS011;39101;53.478;6.158;2023-07-02T10:47:14;20.13;;;5.13;;
51499;SDS011;39101;53.478;6.158;2023-07-02T10:49:40;12.60;;;3.88;;
51499;SDS011;39101;53.478;6.158;2023-07-02T10:52:06;14.20;;;3.72;;
51499;SDS011;39101;53.478;6.158;2023-07-02T10:54:52;17.63;;;4.13;;
51499;SDS011;39101;53.478;6.158;2023-07-02T10:57:18;15.90;;;4.45;;
51499;SDS011;39101;53.478;6.158;2023-07-02T10:59:47;16.27;;;4.40;;
51499;SDS011;39101;53.478;6.158;2023-07-02T11:02:14;17.27;;;5.30;;
51499;SDS011;39101;53.478;6.158;2023-07-02T11:04:40;18.83;;;5.00;;
51499;SDS011;39101;53.478;6.158;2023-07-02T11:07:05;10.45;;;3.40;;
51499;SDS011;39101;53.478;6.158;2023-07-02T11:09:32;14.10;;;3.42;;
51499;SDS011;39101;53.478;6.158;2023-07-02T11:11:58;14.35;;;4.45;;
51499;SDS011;39101;53.478;6.158;2023-07-02T11:16:55;17.73;;;4.15;;
51499;SDS011;39101;53.478;6.158;2023-07-02T11:19:21;19.67;;;4.22;;
51499;SDS011;39101;53.478;6.158;2023-07-02T11:21:51;15.93;;;3.85;;
51499;SDS011;39101;53.478;6.158;2023-07-02T11:26:58;20.65;;;5.50;;
51499;SDS011;39101;53.478;6.158;2023-07-02T11:31:54;14.55;;;4.30;;
51499;SDS011;39101;53.478;6.158;2023-07-02T11:34:29;13.38;;;3.70;;
51499;SDS011;39101;53.478;6.158;2023-07-02T11:36:54;13.85;;;3.65;;
51499;SDS011;39101;53.478;6.158;2023-07-02T11:39:20;14.18;;;3.70;;
51499;SDS011;39101;53.478;6.158;2023-07-02T11:41:47;10.20;;;3.15;;
51499;SDS011;39101;53.478;6.158;2023-07-02T11:44:13;17.05;;;3.80;;
51499;SDS011;39101;53.478;6.158;2023-07-02T11:46:40;16.45;;;3.72;;
51499;SDS011;39101;53.478;6.158;2023-07-02T11:49:06;12.45;;;3.65;;
51499;SDS011;39101;53.478;6.158;2023-07-02T11:51:38;11.38;;;3.25;;
51499;SDS011;39101;53.478;6.158;2023-07-02T11:54:04;15.50;;;4.03;;
51499;SDS011;39101;53.478;6.158;2023-07-02T11:56:30;15.20;;;4.35;;
51499;SDS011;39101;53.478;6.158;2023-07-02T11:58:57;12.88;;;4.25;;
51499;SDS011;39101;53.478;6.158;2023-07-02T12:01:23;18.20;;;4.45;;
51499;SDS011;39101;53.478;6.158;2023-07-02T12:03:48;24.13;;;4.50;;
51499;SDS011;39101;53.478;6.158;2023-07-02T12:06:14;24.20;;;5.70;;
51499;SDS011;39101;53.478;6.158;2023-07-02T12:08:40;17.10;;;3.88;;
51499;SDS011;39101;53.478;6.158;2023-07-02T12:11:06;13.93;;;3.97;;
51499;SDS011;39101;53.478;6.158;2023-07-02T12:13:32;20.60;;;5.13;;
51499;SDS011;39101;53.478;6.158;2023-07-02T12:15:57;20.38;;;5.22;;
51499;SDS011;39101;53.478;6.158;2023-07-02T12:18:23;14.98;;;4.57;;
51499;SDS011;39101;53.478;6.158;2023-07-02T12:20:49;17.02;;;4.30;;
51499;SDS011;39101;53.478;6.158;2023-07-02T12:23:14;16.13;;;4.55;;
51499;SDS011;39101;53.478;6.158;2023-07-02T12:25:40;14.90;;;4.28;;
51499;SDS011;39101;53.478;6.158;2023-07-02T12:28:06;15.43;;;4.10;;
51499;SDS011;39101;53.478;6.158;2023-07-02T12:30:32;15.82;;;4.50;;
51499;SDS011;39101;53.478;6.158;2023-07-02T12:32:58;15.95;;;4.70;;
51499;SDS011;39101;53.478;6.158;2023-07-02T12:35:24;16.45;;;4.90;;
51499;SDS011;39101;53.478;6.158;2023-07-02T12:37:50;15.38;;;5.13;;
51499;SDS011;39101;53.478;6.158;2023-07-02T12:40:17;15.18;;;5.40;;
51499;SDS011;39101;53.478;6.158;2023-07-02T12:42:44;16.20;;;4.72;;
51499;SDS011;39101;53.478;6.158;2023-07-02T12:45:11;13.05;;;4.82;;
51499;SDS011;39101;53.478;6.158;2023-07-02T12:47:38;20.52;;;5.13;;
51499;SDS011;39101;53.478;6.158;2023-07-02T12:50:04;20.42;;;5.97;;
51499;SDS011;39101;53.478;6.158;2023-07-02T12:52:30;15.57;;;4.78;;
51499;SDS011;39101;53.478;6.158;2023-07-02T12:54:56;19.02;;;5.25;;
51499;SDS011;39101;53.478;6.158;2023-07-02T12:57:22;12.35;;;4.47;;
51499;SDS011;39101;53.478;6.158;2023-07-02T12:59:47;18.23;;;5.18;;
51499;SDS011;39101;53.478;6.158;2023-07-02T13:02:13;15.65;;;4.97;;
51499;SDS011;39101;53.478;6.158;2023-07-02T13:04:39;18.88;;;5.03;;
51499;SDS011;39101;53.478;6.158;2023-07-02T13:07:05;16.02;;;4.88;;
51499;SDS011;39101;53.478;6.158;2023-07-02T13:09:31;17.45;;;4.80;;
51499;SDS011;39101;53.478;6.158;2023-07-02T13:11:56;15.77;;;5.18;;
51499;SDS011;39101;53.478;6.158;2023-07-02T13:14:22;19.35;;;4.95;;
51499;SDS011;39101;53.478;6.158;2023-07-02T13:16:48;18.63;;;4.40;;
51499;SDS011;39101;53.478;6.158;2023-07-02T13:19:13;15.95;;;5.15;;
51499;SDS011;39101;53.478;6.158;2023-07-02T13:21:40;14.90;;;5.45;;
51499;SDS011;39101;53.478;6.158;2023-07-02T13:24:06;15.05;;;4.82;;
51499;SDS011;39101;53.478;6.158;2023-07-02T13:26:32;16.88;;;5.07;;
51499;SDS011;39101;53.478;6.158;2023-07-02T13:28:57;19.52;;;6.95;;
51499;SDS011;39101;53.478;6.158;2023-07-02T13:31:23;19.17;;;4.75;;
51499;SDS011;39101;53.478;6.158;2023-07-02T13:33:49;19.63;;;5.10;;
51499;SDS011;39101;53.478;6.158;2023-07-02T13:36:15;16.33;;;5.32;;
51499;SDS011;39101;53.478;6.158;2023-07-02T13:38:41;17.92;;;5.15;;
51499;SDS011;39101;53.478;6.158;2023-07-02T13:41:07;18.08;;;5.35;;
51499;SDS011;39101;53.478;6.158;2023-07-02T13:43:33;18.95;;;6.18;;
51499;SDS011;39101;53.478;6.158;2023-07-02T13:45:59;22.48;;;5.53;;
51499;SDS011;39101;53.478;6.158;2023-07-02T13:48:25;22.83;;;6.43;;
51499;SDS011;39101;53.478;6.158;2023-07-02T13:50:51;19.80;;;5.95;;
51499;SDS011;39101;53.478;6.158;2023-07-02T13:53:16;21.95;;;5.97;;
51499;SDS011;39101;53.478;6.158;2023-07-02T13:55:42;17.42;;;5.22;;
51499;SDS011;39101;53.478;6.158;2023-07-02T13:58:08;17.75;;;5.07;;
51499;SDS011;39101;53.478;6.158;2023-07-02T14:00:33;14.98;;;4.72;;
51499;SDS011;39101;53.478;6.158;2023-07-02T14:02:59;20.25;;;5.40;;
51499;SDS011;39101;53.478;6.158;2023-07-02T14:05:25;19.60;;;5.78;;
51499;SDS011;39101;53.478;6.158;2023-07-02T14:07:50;20.63;;;5.70;;
51499;SDS011;39101;53.478;6.158;2023-07-02T14:10:16;19.42;;;5.53;;
51499;SDS011;39101;53.478;6.158;2023-07-02T14:12:42;13.63;;;4.32;;
51499;SDS011;39101;53.478;6.158;2023-07-02T14:15:08;14.77;;;4.93;;
51499;SDS011;39101;53.478;6.158;2023-07-02T14:17:34;15.60;;;4.97;;
51499;SDS011;39101;53.478;6.158;2023-07-02T14:20:01;13.38;;;5.15;;
51499;SDS011;39101;53.478;6.158;2023-07-02T14:22:27;13.07;;;4.93;;
51499;SDS011;39101;53.478;6.158;2023-07-02T14:24:53;16.27;;;4.88;;
51499;SDS011;39101;53.478;6.158;2023-07-02T14:27:19;17.63;;;5.05;;
51499;SDS011;39101;53.478;6.158;2023-07-02T14:29:45;18.42;;;5.63;;
51499;SDS011;39101;53.478;6.158;2023-07-02T14:32:12;14.43;;;5.10;;
51499;SDS011;39101;53.478;6.158;2023-07-02T14:34:39;12.30;;;4.88;;
51499;SDS011;39101;53.478;6.158;2023-07-02T14:37:05;14.63;;;4.55;;
51499;SDS011;39101;53.478;6.158;2023-07-02T14:39:31;11.68;;;5.07;;
51499;SDS011;39101;53.478;6.158;2023-07-02T14:41:57;17.13;;;5.55;;
51499;SDS011;39101;53.478;6.158;2023-07-02T14:44:24;15.82;;;5.25;;
51499;SDS011;39101;53.478;6.158;2023-07-02T14:46:49;15.93;;;4.97;;
51499;SDS011;39101;53.478;6.158;2023-07-02T14:49:15;14.35;;;4.72;;
51499;SDS011;39101;53.478;6.158;2023-07-02T14:51:41;16.00;;;4.65;;
51499;SDS011;39101;53.478;6.158;2023-07-02T14:54:07;13.27;;;4.70;;
51499;SDS011;39101;53.478;6.158;2023-07-02T14:56:33;14.13;;;5.32;;
51499;SDS011;39101;53.478;6.158;2023-07-02T14:59:01;12.35;;;4.50;;